Time;durP1;ratioP1;P1;durP2;ratioP2;P2;SDS_P1;SDS_P2;PMS_P1;PMS_P2;Temp;Humidity;BMP_temperature;BMP_pressure;BME280_temperature;BME280_humidity;BME280_pressure;Samples;Min_cycle;Max_cycle;Signal;HPM_P1;HPM_P2
2021/08/01 00:00:14;;;;;;;;;;;;;;;15.55;72.26;98796.63;5014350;28;19918;-60
2021/08/01 00:02:40;;;;;;;;;;;;;;;15.44;72.80;98795.09;5019659;28;19921;-61
2021/08/01 00:05:06;;;;;;;;;;;;;;;15.43;72.68;98799.72;5034290;28;20030;-60
2021/08/01 00:07:33;;;;;;;;;;;;;;;15.38;72.88;98801.66;5034454;28;20275;-60
2021/08/01 00:09:58;;;;;;;;;;;;;;;15.23;73.77;98795.28;5034546;28;19964;-60
2021/08/01 00:12:24;;;;;;;;;;;;;;;15.18;73.96;98798.03;5033877;28;20043;-60
2021/08/01 00:14:49;;;;;;;;;;;;;;;15.20;73.57;98800.44;5034447;28;19921;-60
2021/08/01 00:17:14;;;;;;;;;;;;;;;15.15;73.74;98787.00;5033938;28;19921;-60
2021/08/01 00:19:39;;;;;;;;;;;;;;;15.12;73.96;98790.25;5034323;28;19917;-60
2021/08/01 00:22:05;;;;;;;;;;;;;;;15.06;74.27;98787.59;5034050;28;19960;-61
2021/08/01 00:24:30;;;;;;;;;;;;;;;14.95;74.81;98778.00;5034325;28;20379;-60
2021/08/01 00:26:55;;;;;;;;;;;;;;;14.95;74.86;98772.59;5033661;28;19921;-60
2021/08/01 00:29:20;;;;;;;;;;;;;;;14.96;74.73;98778.78;5034034;28;19963;-60
2021/08/01 00:31:46;;;;;;;;;;;;;;;15.01;74.56;98776.06;5032435;28;19929;-60
2021/08/01 00:34:11;;;;;;;;;;;;;;;14.92;74.75;98777.72;5034144;28;20425;-61
2021/08/01 00:36:36;;;;;;;;;;;;;;;14.87;74.91;98771.28;5033736;28;20071;-60
2021/08/01 00:39:01;;;;;;;;;;;;;;;14.88;75.26;98770.22;5033970;28;19948;-60
2021/08/01 00:41:27;;;;;;;;;;;;;;;14.79;75.72;98765.69;5033439;28;19921;-60
2021/08/01 00:43:52;;;;;;;;;;;;;;;14.67;76.12;98760.66;5033966;28;19924;-60
2021/08/01 00:46:17;;;;;;;;;;;;;;;14.64;76.15;98756.63;5033567;28;20367;-60
2021/08/01 00:48:42;;;;;;;;;;;;;;;14.58;76.76;98756.94;5032650;28;19928;-60
2021/08/01 00:51:08;;;;;;;;;;;;;;;14.53;76.97;98765.03;5032248;28;19956;-60
2021/08/01 00:53:33;;;;;;;;;;;;;;;14.49;77.17;98764.78;5033668;28;20283;-60
2021/08/01 00:55:58;;;;;;;;;;;;;;;14.39;77.44;98754.84;5033471;28;19924;-60
2021/08/01 00:58:23;;;;;;;;;;;;;;;14.30;78.02;98755.72;5033610;28;20287;-60
2021/08/01 01:01:10;;;;;;;;;;;;;;;14.22;78.26;98749.81;5033237;28;20011;-60
2021/08/01 01:03:43;;;;;;;;;;;;;;;14.08;78.96;98758.78;5033508;28;20008;-60
2021/08/01 01:06:10;;;;;;;;;;;;;;;14.03;79.08;98752.38;5032056;28;20051;-60
2021/08/01 01:08:45;;;;;;;;;;;;;;;14.01;79.13;98759.13;5033556;28;19999;-60
2021/08/01 01:11:13;;;;;;;;;;;;;;;14.00;79.42;98754.78;5031676;28;19922;-60
2021/08/01 01:13:40;;;;;;;;;;;;;;;14.05;79.05;98748.56;5012655;28;19956;-60
2021/08/01 01:16:05;;;;;;;;;;;;;;;13.96;79.40;98759.94;5021338;28;19921;-60
2021/08/01 01:19:00;;;;;;;;;;;;;;;13.92;79.20;98756.16;5032176;28;19917;-60
2021/08/01 01:21:32;;;;;;;;;;;;;;;13.86;79.49;98745.72;5012390;28;19922;-60
2021/08/01 01:24:05;;;;;;;;;;;;;;;13.82;79.90;98738.16;5012544;28;19940;-61
2021/08/01 01:26:32;;;;;;;;;;;;;;;13.82;79.68;98731.97;5024073;28;20367;-61
2021/08/01 01:29:03;;;;;;;;;;;;;;;13.82;79.44;98729.28;5031929;28;19994;-60
2021/08/01 01:31:43;;;;;;;;;;;;;;;13.78;79.95;98717.47;5020638;28;19953;-61
2021/08/01 01:34:12;;;;;;;;;;;;;;;13.78;79.85;98722.84;5012434;28;20068;-61
2021/08/01 01:36:39;;;;;;;;;;;;;;;13.74;79.98;98724.47;5025103;28;19921;-61
2021/08/01 01:39:04;;;;;;;;;;;;;;;13.78;80.09;98728.22;5032728;28;19917;-61
2021/08/01 01:41:30;;;;;;;;;;;;;;;13.72;80.34;98724.72;5020568;28;20386;-61
2021/08/01 01:43:55;;;;;;;;;;;;;;;13.74;80.43;98727.16;5012233;28;20291;-60
2021/08/01 01:46:20;;;;;;;;;;;;;;;13.69;80.79;98735.25;5022636;28;20179;-61
2021/08/01 01:48:45;;;;;;;;;;;;;;;13.61;81.16;98733.94;5033123;28;19923;-61
2021/08/01 01:51:11;;;;;;;;;;;;;;;13.57;81.25;98738.25;5022829;28;20119;-61
2021/08/01 01:53:36;;;;;;;;;;;;;;;13.57;81.61;98738.25;5013511;28;20009;-61
2021/08/01 01:56:01;;;;;;;;;;;;;;;13.50;81.56;98749.28;5020853;28;20299;-60
2021/08/01 01:58:28;;;;;;;;;;;;;;;13.36;81.89;98749.06;5031725;28;19999;-60
2021/08/01 02:00:53;;;;;;;;;;;;;;;13.25;82.95;98735.88;5025292;28;19926;-60
2021/08/01 02:03:18;;;;;;;;;;;;;;;13.32;82.87;98747.19;5011853;28;19929;-61
2021/08/01 02:05:43;;;;;;;;;;;;;;;13.28;83.23;98751.50;5018808;28;19975;-61
2021/08/01 02:08:09;;;;;;;;;;;;;;;13.31;83.24;98749.09;5033070;28;20402;-61
2021/08/01 02:10:45;;;;;;;;;;;;;;;13.36;83.16;98748.28;5027832;28;19922;-60
2021/08/01 02:13:10;;;;;;;;;;;;;;;13.39;83.50;98758.50;5011956;28;19953;-61
2021/08/01 02:16:02;;;;;;;;;;;;;;;13.43;82.85;98748.81;5011562;28;20108;-61
2021/08/01 02:18:28;;;;;;;;;;;;;;;13.16;83.30;98766.03;5011319;28;20004;-61
2021/08/01 02:20:54;;;;;;;;;;;;;;;13.07;83.65;98751.50;5011532;28;19917;-60
2021/08/01 02:23:20;;;;;;;;;;;;;;;13.17;83.84;98759.56;5012008;28;20009;-60
2021/08/01 02:25:45;;;;;;;;;;;;;;;13.24;83.58;98761.19;5011504;28;19918;-60
2021/08/01 02:28:10;;;;;;;;;;;;;;;13.26;83.63;98753.66;5016674;28;19918;-60
2021/08/01 02:30:36;;;;;;;;;;;;;;;13.23;83.54;98749.63;5014978;28;19928;-60
2021/08/01 02:33:01;;;;;;;;;;;;;;;13.20;83.76;98752.81;5015426;28;19917;-60
2021/08/01 02:35:27;;;;;;;;;;;;;;;13.03;84.12;98750.44;5014933;28;20382;-60
2021/08/01 02:37:53;;;;;;;;;;;;;;;12.98;84.25;98745.06;5015265;28;19917;-60
2021/08/01 02:40:18;;;;;;;;;;;;;;;12.91;84.42;98750.69;5015873;28;19980;-60
2021/08/01 02:42:44;;;;;;;;;;;;;;;12.87;84.73;98751.50;5015430;28;19925;-60
2021/08/01 02:45:09;;;;;;;;;;;;;;;12.79;84.91;98754.75;5017198;28;19971;-60
2021/08/01 02:47:34;;;;;;;;;;;;;;;12.80;85.21;98756.34;5035909;28;19917;-60
2021/08/01 02:50:00;;;;;;;;;;;;;;;12.81;85.17;98750.69;5035922;28;19917;-60
2021/08/01 02:52:29;;;;;;;;;;;;;;;12.82;85.45;98754.19;5034204;28;19921;-61
2021/08/01 02:54:54;;;;;;;;;;;;;;;12.77;85.14;98751.50;5034926;28;19918;-60
2021/08/01 02:57:20;;;;;;;;;;;;;;;12.78;85.57;98745.03;5034382;28;20016;-60
2021/08/01 02:59:45;;;;;;;;;;;;;;;12.72;85.50;98744.25;5034470;28;19917;-60
2021/08/01 03:02:10;;;;;;;;;;;;;;;12.70;85.93;98743.69;5034076;28;20028;-61
2021/08/01 03:04:39;;;;;;;;;;;;;;;12.74;85.36;98736.72;5034229;28;19921;-61
2021/08/01 03:07:05;;;;;;;;;;;;;;;12.78;85.69;98743.19;5035283;28;19929;-60
2021/08/01 03:09:30;;;;;;;;;;;;;;;12.70;85.57;98747.22;5035467;28;19917;-60
2021/08/01 03:12:06;;;;;;;;;;;;;;;12.72;85.67;98749.63;5027390;28;19928;-60
2021/08/01 03:14:31;;;;;;;;;;;;;;;12.72;86.09;98745.03;5015767;28;20356;-60
2021/08/01 03:16:56;;;;;;;;;;;;;;;12.81;86.00;98742.63;5031015;28;19917;-60
2021/08/01 03:19:21;;;;;;;;;;;;;;;12.83;85.81;98747.72;5035430;28;20290;-60
2021/08/01 03:21:46;;;;;;;;;;;;;;;12.88;85.79;98753.09;5020385;28;19918;-60
2021/08/01 03:24:12;;;;;;;;;;;;;;;12.91;85.86;98753.41;5015449;28;20105;-60
2021/08/01 03:26:37;;;;;;;;;;;;;;;12.91;85.45;98749.91;5028160;28;19926;-60
2021/08/01 03:29:02;;;;;;;;;;;;;;;12.91;85.18;98756.09;5035278;28;20398;-60
2021/08/01 03:31:27;;;;;;;;;;;;;;;12.93;85.50;98747.75;5022870;28;19926;-60
2021/08/01 03:33:53;;;;;;;;;;;;;;;12.98;85.35;98752.31;5015063;28;19922;-60
2021/08/01 03:36:18;;;;;;;;;;;;;;;13.01;85.08;98752.59;5025869;28;20394;-60
2021/08/01 03:38:43;;;;;;;;;;;;;;;13.02;85.24;98748.81;5033155;28;19917;-61
2021/08/01 03:41:09;;;;;;;;;;;;;;;13.02;85.05;98742.63;5025524;28;20017;-60
2021/08/01 03:43:34;;;;;;;;;;;;;;;12.92;85.61;98754.19;5014283;28;20425;-60
2021/08/01 03:45:59;;;;;;;;;;;;;;;12.86;85.84;98744.53;5022929;28;20014;-60
2021/08/01 03:48:25;;;;;;;;;;;;;;;12.89;85.60;98739.41;5035075;28;20295;-60
2021/08/01 03:50:50;;;;;;;;;;;;;;;12.94;85.96;98736.72;5027792;28;19929;-61
2021/08/01 03:53:15;;;;;;;;;;;;;;;12.94;85.61;98742.09;5015250;28;19987;-60
2021/08/01 03:55:41;;;;;;;;;;;;;;;13.00;85.44;98740.19;5020073;28;19921;-61
2021/08/01 03:58:06;;;;;;;;;;;;;;;13.14;84.53;98738.56;5034596;28;19917;-60
2021/08/01 04:00:31;;;;;;;;;;;;;;;13.11;84.54;98747.19;5029984;28;19921;-60
2021/08/01 04:02:56;;;;;;;;;;;;;;;13.07;84.73;98751.50;5014879;28;19968;-60
2021/08/01 04:05:21;;;;;;;;;;;;;;;13.11;84.90;98752.56;5017470;28;19956;-60
2021/08/01 04:07:47;;;;;;;;;;;;;;;13.06;84.98;98749.91;5034522;28;19910;-61
2021/08/01 04:10:12;;;;;;;;;;;;;;;13.05;85.09;98753.66;5032521;28;19936;-62
2021/08/01 04:12:37;;;;;;;;;;;;;;;13.10;84.62;98756.34;5014905;28;20368;-60
2021/08/01 04:15:03;;;;;;;;;;;;;;;13.04;85.17;98749.34;5014680;28;19944;-60
2021/08/01 04:17:29;;;;;;;;;;;;;;;12.88;85.70;98758.47;5034575;28;19913;-60
2021/08/01 04:19:54;;;;;;;;;;;;;;;12.91;85.15;98752.59;5033128;28;19917;-61
2021/08/01 04:22:19;;;;;;;;;;;;;;;12.83;85.75;98751.25;5032671;28;19921;-60
2021/08/01 04:24:45;;;;;;;;;;;;;;;12.80;85.73;98750.97;5034302;28;20290;-61
2021/08/01 04:27:10;;;;;;;;;;;;;;;12.82;85.75;98757.69;5033749;28;19921;-60
2021/08/01 04:29:35;;;;;;;;;;;;;;;12.79;86.26;98750.16;5034378;28;19924;-60
2021/08/01 04:32:00;;;;;;;;;;;;;;;12.80;86.08;98750.97;5033668;28;19932;-60
2021/08/01 04:34:26;;;;;;;;;;;;;;;12.76;86.31;98757.97;5034213;28;19918;-60
2021/08/01 04:36:51;;;;;;;;;;;;;;;12.85;86.35;98759.03;5033688;28;20020;-61
2021/08/01 04:39:16;;;;;;;;;;;;;;;12.78;86.11;98766.56;5034005;28;19917;-60
2021/08/01 04:41:41;;;;;;;;;;;;;;;12.89;85.73;98770.88;5033564;28;19975;-60
2021/08/01 04:44:07;;;;;;;;;;;;;;;12.93;85.50;98763.91;5034150;28;20299;-60
2021/08/01 04:46:32;;;;;;;;;;;;;;;12.93;85.42;98763.91;5033659;28;19932;-60
2021/08/01 04:48:57;;;;;;;;;;;;;;;12.99;85.37;98762.81;5034044;28;20283;-61
2021/08/01 04:51:23;;;;;;;;;;;;;;;13.11;85.03;98763.34;5033400;28;20319;-61
2021/08/01 04:53:48;;;;;;;;;;;;;;;13.16;85.19;98766.03;5033730;28;20003;-60
2021/08/01 04:56:13;;;;;;;;;;;;;;;13.25;84.62;98768.16;5033262;28;19928;-60
2021/08/01 04:58:38;;;;;;;;;;;;;;;13.16;84.87;98768.72;5033696;28;19913;-61
2021/08/01 05:01:10;;;;;;;;;;;;;;;13.26;84.58;98762.53;5032058;28;20406;-60
2021/08/01 05:03:36;;;;;;;;;;;;;;;13.31;84.37;98767.13;5033497;28;19956;-61
2021/08/01 05:06:01;;;;;;;;;;;;;;;13.47;83.89;98766.00;5033270;28;19953;-60
2021/08/01 05:08:26;;;;;;;;;;;;;;;13.34;84.51;98763.88;5033544;28;20275;-60
2021/08/01 05:10:51;;;;;;;;;;;;;;;13.41;84.84;98767.09;5033079;28;19967;-60
2021/08/01 05:13:17;;;;;;;;;;;;;;;13.53;84.28;98762.25;5014998;28;19924;-60
2021/08/01 05:15:42;;;;;;;;;;;;;;;13.46;84.21;98759.00;5019155;28;20304;-61
2021/08/01 05:18:07;;;;;;;;;;;;;;;13.56;83.94;98760.88;5033647;28;20291;-62
2021/08/01 05:20:33;;;;;;;;;;;;;;;13.47;84.17;98755.22;5028831;28;19969;-60
2021/08/01 05:22:58;;;;;;;;;;;;;;;13.59;83.88;98754.94;5013619;28;19917;-62
2021/08/01 05:25:23;;;;;;;;;;;;;;;13.67;83.42;98751.69;5015309;28;20007;-62
2021/08/01 05:27:48;;;;;;;;;;;;;;;13.78;83.39;98749.78;5033722;28;20003;-62
2021/08/01 05:30:14;;;;;;;;;;;;;;;13.86;83.03;98751.09;5031193;28;19913;-62
2021/08/01 05:32:39;;;;;;;;;;;;;;;13.85;82.89;98750.28;5013859;28;19925;-62
2021/08/01 05:35:05;;;;;;;;;;;;;;;14.16;81.71;98758.25;5013550;28;19913;-65
2021/08/01 05:37:30;;;;;;;;;;;;;;;14.27;81.67;98759.78;5033335;28;19913;-62
2021/08/01 05:39:56;;;;;;;;;;;;;;;14.57;80.48;98766.09;5033430;28;19917;-62
2021/08/01 05:42:21;;;;;;;;;;;;;;;14.42;81.29;98765.09;5013884;28;20403;-62
2021/08/01 05:44:47;;;;;;;;;;;;;;;14.31;81.50;98763.53;5013672;28;19972;-61
2021/08/01 05:47:12;;;;;;;;;;;;;;;14.46;81.28;98771.53;5031000;28;20292;-60
2021/08/01 05:49:37;;;;;;;;;;;;;;;14.70;80.31;98770.06;5033150;28;19924;-61
2021/08/01 05:52:02;;;;;;;;;;;;;;;14.81;80.04;98777.81;5016006;28;19925;-60
2021/08/01 05:54:28;;;;;;;;;;;;;;;15.36;77.84;98766.03;5011703;28;19921;-60
2021/08/01 05:56:53;;;;;;;;;;;;;;;15.65;76.01;98769.50;5028483;28;19932;-61
2021/08/01 05:59:18;;;;;;;;;;;;;;;15.09;78.06;98772.75;5033237;28;20294;-60
2021/08/01 06:01:43;;;;;;;;;;;;;;;14.94;78.47;98770.16;5020371;28;19921;-60
2021/08/01 06:04:09;;;;;;;;;;;;;;;15.18;78.28;98773.75;5017177;28;20505;-60
2021/08/01 06:06:34;;;;;;;;;;;;;;;15.00;78.43;98779.81;5029628;28;19925;-60
2021/08/01 06:08:59;;;;;;;;;;;;;;;15.94;75.62;98782.97;5036937;28;19921;-60
2021/08/01 06:11:24;;;;;;;;;;;;;;;17.18;70.15;98782.88;5024800;28;19929;-60
2021/08/01 06:13:50;;;;;;;;;;;;;;;16.85;70.45;98790.19;5017163;28;19928;-60
2021/08/01 06:16:15;;;;;;;;;;;;;;;16.64;71.14;98786.13;5026994;28;19983;-60
2021/08/01 06:18:41;;;;;;;;;;;;;;;16.05;73.92;98789.09;5036785;28;19917;-60
2021/08/01 06:21:13;;;;;;;;;;;;;;;15.65;75.32;98780.31;5036247;28;20382;-60
2021/08/01 06:23:39;;;;;;;;;;;;;;;15.85;75.40;98783.88;5036891;28;19917;-60
2021/08/01 06:26:04;;;;;;;;;;;;;;;15.82;74.82;98789.88;5036271;28;19921;-60
2021/08/01 06:28:31;;;;;;;;;;;;;;;15.63;75.51;98787.09;5036557;28;19922;-60
2021/08/01 06:30:56;;;;;;;;;;;;;;;15.65;75.19;98790.28;5036112;28;19921;-60
2021/08/01 06:33:21;;;;;;;;;;;;;;;16.33;72.71;98786.56;5036449;28;19940;-60
2021/08/01 06:35:47;;;;;;;;;;;;;;;16.11;74.21;98787.91;5036036;28;19921;-60
2021/08/01 06:38:12;;;;;;;;;;;;;;;16.17;73.29;98796.75;5036433;28;19925;-61
2021/08/01 06:40:38;;;;;;;;;;;;;;;16.39;73.31;98782.69;5036025;28;20287;-60
2021/08/01 06:43:03;;;;;;;;;;;;;;;16.77;71.70;98793.50;5036461;28;19968;-60
2021/08/01 06:45:28;;;;;;;;;;;;;;;17.96;67.55;98782.31;5036016;28;20026;-60
2021/08/01 06:47:53;;;;;;;;;;;;;;;17.40;68.40;98789.56;5036208;28;19917;-61
2021/08/01 06:50:20;;;;;;;;;;;;;;;19.38;61.79;98802.69;5035750;28;19921;-60
2021/08/01 06:52:46;;;;;;;;;;;;;;;20.19;58.92;98804.38;5018490;28;19979;-60
2021/08/01 06:55:11;;;;;;;;;;;;;;;20.50;57.76;98808.09;5034462;28;20414;-60
2021/08/01 06:57:37;;;;;;;;;;;;;;;22.45;52.52;98808.66;5036146;28;19917;-60
2021/08/01 07:00:03;;;;;;;;;;;;;;;21.62;53.55;98815.44;5035555;28;20356;-60
2021/08/01 07:02:28;;;;;;;;;;;;;;;20.21;58.26;98812.19;5035623;28;19971;-60
2021/08/01 07:04:53;;;;;;;;;;;;;;;22.23;52.11;98814.41;5035763;28;20004;-60
2021/08/01 07:07:18;;;;;;;;;;;;;;;23.56;48.63;98806.41;5035353;28;20363;-60
2021/08/01 07:09:44;;;;;;;;;;;;;;;23.14;48.77;98807.34;5034545;28;19987;-60
2021/08/01 07:12:09;;;;;;;;;;;;;;;24.77;44.97;98815.00;5025084;28;19929;-60
2021/08/01 07:14:35;;;;;;;;;;;;;;;24.59;44.94;98806.25;5015263;28;19918;-60
2021/08/01 07:17:01;;;;;;;;;;;;;;;21.80;50.63;98810.72;5031430;28;20091;-60
2021/08/01 07:19:26;;;;;;;;;;;;;;;22.34;51.06;98808.25;5035484;28;19963;-60
2021/08/01 07:21:51;;;;;;;;;;;;;;;25.18;44.44;98811.09;5035207;28;19925;-60
2021/08/01 07:24:17;;;;;;;;;;;;;;;25.71;41.85;98807.38;5034168;28;19936;-60
2021/08/01 07:26:42;;;;;;;;;;;;;;;26.83;39.80;98811.56;5019960;28;19936;-60
2021/08/01 07:29:07;;;;;;;;;;;;;;;27.89;37.36;98808.50;5015763;28;20296;-58
2021/08/01 07:31:33;;;;;;;;;;;;;;;26.25;40.46;98804.81;5015123;28;20023;-60
2021/08/01 07:34:00;;;;;;;;;;;;;;;26.78;39.60;98801.66;5015611;28;19921;-60
2021/08/01 07:36:25;;;;;;;;;;;;;;;26.93;38.80;98804.72;5015344;28;19922;-60
2021/08/01 07:38:51;;;;;;;;;;;;;;;25.17;43.15;98801.28;5014252;28;19955;-60
2021/08/01 07:41:16;;;;;;;;;;;;;;;24.96;42.68;98800.66;5015011;28;20291;-60
2021/08/01 07:43:42;;;;;;;;;;;;;;;23.00;48.23;98795.88;5015449;28;19924;-60
2021/08/01 07:46:07;;;;;;;;;;;;;;;26.14;40.49;98789.25;5023842;28;20367;-60
2021/08/01 07:48:32;;;;;;;;;;;;;;;27.67;37.06;98799.84;5033931;28;19944;-60
2021/08/01 07:50:57;;;;;;;;;;;;;;;27.86;36.83;98790.75;5033208;28;19921;-60
2021/08/01 07:53:23;;;;;;;;;;;;;;;26.36;39.38;98793.25;5035246;28;20348;-60
2021/08/01 07:55:49;;;;;;;;;;;;;;;27.66;36.98;98790.00;5033532;28;19917;-61
2021/08/01 07:58:14;;;;;;;;;;;;;;;28.57;34.85;98785.53;5034977;28;19917;-60
2021/08/01 08:00:39;;;;;;;;;;;;;;;27.20;36.92;98776.19;5031110;28;20359;-60
2021/08/01 08:03:05;;;;;;;;;;;;;;;27.49;36.58;98783.03;5034681;28;19921;-60
2021/08/01 08:05:30;;;;;;;;;;;;;;;26.67;38.92;98781.41;5034236;28;20351;-60
2021/08/01 08:07:58;;;;;;;;;;;;;;;25.93;39.56;98776.59;5034644;28;19913;-60
2021/08/01 08:10:23;;;;;;;;;;;;;;;26.96;38.42;98784.72;5034305;28;19925;-60
2021/08/01 08:12:48;;;;;;;;;;;;;;;24.34;42.57;98791.78;5019840;28;19918;-60
2021/08/01 08:15:14;;;;;;;;;;;;;;;23.73;43.01;98789.84;5016328;28;19918;-60
2021/08/01 08:17:39;;;;;;;;;;;;;;;22.79;46.13;98780.28;5033262;28;19971;-60
2021/08/01 08:20:05;;;;;;;;;;;;;;;20.40;53.60;98780.06;5033470;28;19917;-59
2021/08/01 08:22:30;;;;;;;;;;;;;;;23.46;46.31;98778.38;5014884;28;19914;-59
2021/08/01 08:24:55;;;;;;;;;;;;;;;24.53;41.31;98785.72;5014555;28;19917;-61
2021/08/01 08:27:21;;;;;;;;;;;;;;;26.34;37.74;98779.09;5033518;28;19921;-59
2021/08/01 08:29:46;;;;;;;;;;;;;;;26.73;37.14;98781.91;5034474;28;19960;-59
2021/08/01 08:32:11;;;;;;;;;;;;;;;24.29;43.09;98784.59;5016018;28;20406;-60
2021/08/01 08:34:36;;;;;;;;;;;;;;;24.41;41.36;98788.44;5014323;28;19925;-59
2021/08/01 08:37:02;;;;;;;;;;;;;;;23.30;45.47;98782.09;5030491;28;19921;-59
2021/08/01 08:39:28;;;;;;;;;;;;;;;22.72;47.20;98781.97;5034030;28;20288;-60
2021/08/01 08:41:53;;;;;;;;;;;;;;;22.10;49.47;98781.53;5016767;28;19925;-62
2021/08/01 08:44:18;;;;;;;;;;;;;;;24.69;44.32;98781.13;5013085;28;20277;-61
2021/08/01 08:46:44;;;;;;;;;;;;;;;24.95;41.57;98788.88;5014055;28;19995;-59
2021/08/01 08:49:10;;;;;;;;;;;;;;;25.55;40.79;98786.22;5012946;28;20324;-60
2021/08/01 08:51:38;;;;;;;;;;;;;;;25.89;38.41;98794.94;5013699;28;20403;-59
2021/08/01 08:54:04;;;;;;;;;;;;;;;25.59;40.08;98787.09;5014275;28;19921;-60
2021/08/01 08:56:29;;;;;;;;;;;;;;;23.16;45.22;98793.31;5012612;28;19921;-61
2021/08/01 08:58:54;;;;;;;;;;;;;;;25.43;39.92;98797.25;5045892;28;20426;-59
2021/08/01 09:01:20;;;;;;;;;;;;;;;21.71;47.22;98794.38;5023233;28;19921;-60
2021/08/01 09:03:48;;;;;;;;;;;;;;;21.89;47.31;98791.59;5065516;28;19960;-61
2021/08/01 09:06:14;;;;;;;;;;;;;;;23.02;45.83;98788.97;5033196;28;19925;-60
2021/08/01 09:08:40;;;;;;;;;;;;;;;24.60;42.30;98791.41;5032534;28;19917;-60
2021/08/01 09:11:05;;;;;;;;;;;;;;;22.98;44.91;98785.28;5033165;28;19928;-62
2021/08/01 09:13:43;;;;;;;;;;;;;;;22.38;45.89;98781.88;5033633;28;19917;-59
2021/08/01 09:16:09;;;;;;;;;;;;;;;21.97;48.31;98788.03;5033069;28;19921;-59
2021/08/01 09:18:34;;;;;;;;;;;;;;;22.33;47.82;98784.00;5033533;28;19921;-59
2021/08/01 09:20:59;;;;;;;;;;;;;;;21.55;48.27;98787.88;5033284;28;20360;-61
2021/08/01 09:23:24;;;;;;;;;;;;;;;23.35;44.36;98790.09;5033352;28;19959;-59
2021/08/01 09:26:00;;;;;;;;;;;;;;;22.73;46.42;98792.53;5033054;28;19921;-59
2021/08/01 09:28:25;;;;;;;;;;;;;;;24.23;43.25;98791.44;5033259;28;20371;-59
2021/08/01 09:30:52;;;;;;;;;;;;;;;22.63;47.69;98786.69;5032798;28;19922;-61
2021/08/01 09:33:37;;;;;;;;;;;;;;;21.88;48.90;98779.09;5033347;28;20019;-61
2021/08/01 09:36:09;;;;;;;;;;;;;;;20.95;51.08;98786.84;5032455;28;19949;-61
2021/08/01 09:38:53;;;;;;;;;;;;;;;22.57;45.00;98780.63;5032091;28;19921;-61
2021/08/01 09:41:25;;;;;;;;;;;;;;;24.19;41.97;98771.38;5032717;28;19964;-61
2021/08/01 09:43:50;;;;;;;;;;;;;;;21.33;49.89;98770.56;5033296;28;19917;-61
2021/08/01 09:46:16;;;;;;;;;;;;;;;21.63;49.48;98778.84;5032950;28;20434;-60
2021/08/01 09:48:41;;;;;;;;;;;;;;;20.81;49.35;98765.22;5033183;28;19923;-61
2021/08/01 09:51:07;;;;;;;;;;;;;;;20.76;49.32;98764.59;5030774;28;19960;-60
2021/08/01 09:53:32;;;;;;;;;;;;;;;21.11;49.49;98765.34;5032764;28;19917;-60
2021/08/01 09:56:13;;;;;;;;;;;;;;;22.61;45.34;98755.06;5032833;28;19917;-60
2021/08/01 09:58:39;;;;;;;;;;;;;;;24.94;39.59;98765.38;5033224;28;19979;-61
2021/08/01 10:01:04;;;;;;;;;;;;;;;25.29;34.82;98764.78;5032536;28;20367;-59
2021/08/01 10:03:36;;;;;;;;;;;;;;;24.35;36.79;98765.19;5032961;28;19928;-59
2021/08/01 10:06:07;;;;;;;;;;;;;;;25.63;34.95;98769.94;5032552;28;19959;-60
2021/08/01 10:08:37;;;;;;;;;;;;;;;24.59;36.50;98764.34;5032978;28;19917;-62
2021/08/01 10:11:10;;;;;;;;;;;;;;;26.50;33.02;98770.81;5032578;28;19975;-60
2021/08/01 10:13:36;;;;;;;;;;;;;;;26.78;32.51;98771.41;5032984;28;19918;-59
2021/08/01 10:16:01;;;;;;;;;;;;;;;24.98;35.20;98776.44;5031361;28;19934;-59
2021/08/01 10:18:26;;;;;;;;;;;;;;;25.79;34.58;98766.03;5032981;28;20398;-60
2021/08/01 10:20:51;;;;;;;;;;;;;;;26.35;32.26;98764.19;5032399;28;19929;-60
2021/08/01 10:23:16;;;;;;;;;;;;;;;27.25;30.92;98762.16;5033275;28;19917;-60
2021/08/01 10:25:42;;;;;;;;;;;;;;;26.32;31.80;98760.22;5031280;28;19952;-60
2021/08/01 10:28:07;;;;;;;;;;;;;;;26.32;31.56;98762.97;5032921;28;19932;-60
2021/08/01 10:30:32;;;;;;;;;;;;;;;27.24;30.83;98755.06;5032309;28;19921;-61
2021/08/01 10:33:05;;;;;;;;;;;;;;;25.77;33.14;98751.88;5032884;28;19921;-61
2021/08/01 10:35:31;;;;;;;;;;;;;;;26.51;31.47;98769.63;5032465;28;19943;-60
2021/08/01 10:37:59;;;;;;;;;;;;;;;26.39;32.04;98765.88;5031681;28;20434;-60
2021/08/01 10:40:25;;;;;;;;;;;;;;;24.84;34.77;98760.41;5032257;28;19921;-60
2021/08/01 10:42:51;;;;;;;;;;;;;;;24.72;35.01;98761.22;5031614;28;19920;-61
2021/08/01 10:45:20;;;;;;;;;;;;;;;26.05;32.66;98756.47;5032332;28;20008;-61
2021/08/01 10:47:46;;;;;;;;;;;;;;;24.82;35.43;98757.22;5034187;28;19913;-60
2021/08/01 10:50:14;;;;;;;;;;;;;;;24.39;36.50;98749.66;5034214;28;19970;-60
2021/08/01 10:52:40;;;;;;;;;;;;;;;25.35;34.57;98759.81;5036421;28;19924;-60
2021/08/01 10:55:06;;;;;;;;;;;;;;;25.10;34.97;98759.94;5034731;28;19924;-61
2021/08/01 10:57:31;;;;;;;;;;;;;;;26.64;32.81;98763.69;5036223;28;19917;-60
2021/08/01 10:59:57;;;;;;;;;;;;;;;26.52;31.78;98779.50;5036159;28;19918;-60
2021/08/01 11:02:23;;;;;;;;;;;;;;;26.45;33.06;98774.63;5035224;28;19925;-61
2021/08/01 11:04:50;;;;;;;;;;;;;;;24.49;37.48;98777.41;5036239;28;20275;-60
2021/08/01 11:07:28;;;;;;;;;;;;;;;23.51;39.23;98776.56;5035360;28;19928;-60
2021/08/01 11:10:08;;;;;;;;;;;;;;;23.92;38.48;98786.56;5035878;28;19917;-60
2021/08/01 11:12:34;;;;;;;;;;;;;;;24.36;37.56;98783.19;5035269;28;20011;-60
2021/08/01 11:15:01;;;;;;;;;;;;;;;24.06;38.30;98780.72;5035714;28;20006;-60
2021/08/01 11:17:51;;;;;;;;;;;;;;;23.43;39.02;98780.97;5034265;28;19928;-60
2021/08/01 11:20:16;;;;;;;;;;;;;;;23.58;37.91;98776.78;5035340;28;19917;-60
2021/08/01 11:22:42;;;;;;;;;;;;;;;23.62;37.65;98773.03;5035493;28;19924;-60
2021/08/01 11:25:20;;;;;;;;;;;;;;;23.95;36.84;98768.66;5035283;28;20334;-60
2021/08/01 11:28:04;;;;;;;;;;;;;;;24.46;37.13;98769.06;5035768;28;19917;-60
2021/08/01 11:30:52;;;;;;;;;;;;;;;25.02;36.26;98782.03;5035043;28;19929;-60
2021/08/01 11:33:27;;;;;;;;;;;;;;;25.77;35.21;98776.56;5035328;28;19928;-60
2021/08/01 11:36:12;;;;;;;;;;;;;;;26.19;34.64;98778.78;5035024;28;19924;-60
2021/08/01 11:38:37;;;;;;;;;;;;;;;25.76;35.11;98788.72;5035283;28;19917;-60
2021/08/01 11:41:03;;;;;;;;;;;;;;;25.17;35.76;98792.25;5035067;28;19925;-60
2021/08/01 11:43:28;;;;;;;;;;;;;;;24.42;36.90;98793.59;5035390;28;19924;-60
2021/08/01 11:46:04;;;;;;;;;;;;;;;24.05;37.53;98790.09;5033538;28;19925;-59
2021/08/01 11:48:29;;;;;;;;;;;;;;;24.18;38.49;98791.66;5034805;28;19945;-59
2021/08/01 11:50:57;;;;;;;;;;;;;;;24.10;38.24;98792.59;5033311;28;19951;-60
2021/08/01 11:53:23;;;;;;;;;;;;;;;23.81;39.36;98790.88;5035001;28;19917;-59
2021/08/01 11:55:49;;;;;;;;;;;;;;;24.01;40.10;98798.19;5033501;28;19928;-60
2021/08/01 11:58:14;;;;;;;;;;;;;;;23.76;40.51;98794.63;5034953;28;20338;-60
2021/08/01 12:00:40;;;;;;;;;;;;;;;23.75;40.33;98793.03;5032643;28;20406;-60
2021/08/01 12:03:06;;;;;;;;;;;;;;;24.09;39.21;98791.00;5033002;28;19925;-60
2021/08/01 12:05:44;;;;;;;;;;;;;;;24.49;39.55;98787.56;5033158;28;20367;-60
2021/08/01 12:08:27;;;;;;;;;;;;;;;23.39;40.08;98786.34;5034577;28;19963;-60
2021/08/01 12:11:04;;;;;;;;;;;;;;;23.14;41.88;98787.38;5034117;28;19922;-59
2021/08/01 12:13:29;;;;;;;;;;;;;;;22.82;42.84;98795.22;5014782;28;19918;-59
2021/08/01 12:15:54;;;;;;;;;;;;;;;22.67;43.21;98788.41;5006836;28;19928;-59
2021/08/01 12:18:27;;;;;;;;;;;;;;;23.01;41.90;98781.91;4994325;28;21280;-60
2021/08/01 12:20:53;;;;;;;;;;;;;;;23.81;39.55;98771.72;4994589;28;19968;-59
2021/08/01 12:23:18;;;;;;;;;;;;;;;24.53;38.29;98781.03;4994978;28;19922;-59
2021/08/01 12:25:49;;;;;;;;;;;;;;;24.37;38.74;98771.91;4994549;28;19930;-60
2021/08/01 12:28:14;;;;;;;;;;;;;;;24.38;38.46;98769.97;4994925;28;20364;-59
2021/08/01 12:30:46;;;;;;;;;;;;;;;24.86;37.51;98777.31;4998512;28;19928;-60
2021/08/01 12:33:11;;;;;;;;;;;;;;;24.96;37.79;98765.00;5014414;28;20356;-60
2021/08/01 12:35:40;;;;;;;;;;;;;;;24.65;37.82;98769.25;5007944;28;19929;-60
2021/08/01 12:38:08;;;;;;;;;;;;;;;25.24;35.41;98758.75;4994801;28;20005;-60
2021/08/01 12:40:43;;;;;;;;;;;;;;;24.92;35.87;98761.41;4998687;28;19921;-59
2021/08/01 12:43:15;;;;;;;;;;;;;;;25.00;35.83;98756.91;5014369;28;19960;-60
2021/08/01 12:45:41;;;;;;;;;;;;;;;25.35;34.28;98746.13;5014052;28;20288;-60